Time;durP1;ratioP1;P1;durP2;ratioP2;P2;SDS_P1;SDS_P2;PMS_P1;PMS_P2;Temp;Humidity;BMP_temperature;BMP_pressure;BME280_temperature;BME280_humidity;BME280_pressure;Samples;Min_cycle;Max_cycle;Signal;HPM_P1;HPM_P2
2023/04/12 00:01:44;;;;;;;8.27;4.72;;;;;;;8.58;77.48;93743.44;4974389;28;20285;-75
2023/04/12 00:04:13;;;;;;;5.70;3.95;;;;;;;8.54;77.29;93737.13;4977362;28;20623;-73
2023/04/12 00:06:40;;;;;;;8.38;4.40;;;;;;;8.56;77.31;93740.28;4982407;28;20225;-72
2023/04/12 00:09:07;;;;;;;6.38;3.42;;;;;;;8.59;77.17;93730.75;4986200;28;20212;-74
2023/04/12 00:11:35;;;;;;;6.05;3.92;;;;;;;8.52;77.20;93729.38;4975809;28;20286;-72
2023/04/12 00:14:03;;;;;;;7.72;4.60;;;;;;;8.53;77.60;93725.56;4985801;28;20232;-73
2023/04/12 00:16:30;;;;;;;7.47;3.80;;;;;;;8.48;77.64;93725.75;4988087;28;20687;-74
2023/04/12 00:18:57;;;;;;;11.25;5.05;;;;;;;8.28;77.87;93696.94;4975482;28;20195;-73
2023/04/12 00:21:27;;;;;;;7.18;3.90;;;;;;;8.50;77.73;93723.53;4979158;28;20835;-73
2023/04/12 00:23:54;;;;;;;7.03;4.05;;;;;;;8.45;77.74;93704.88;4979909;28;20268;-74
2023/04/12 00:26:21;;;;;;;6.63;4.07;;;;;;;8.62;77.28;93711.94;4974043;28;20194;-72
2023/04/12 00:28:48;;;;;;;8.93;4.68;;;;;;;8.52;76.62;93690.78;4979838;28;20320;-73
2023/04/12 00:31:16;;;;;;;8.73;5.15;;;;;;;8.59;77.01;93709.16;4978469;28;20218;-73
2023/04/12 00:33:43;;;;;;;8.60;3.40;;;;;;;8.65;77.03;93724.75;4961299;28;20648;-72
2023/04/12 00:36:10;;;;;;;6.18;3.88;;;;;;;8.55;77.53;93711.72;4976730;28;20795;-73
2023/04/12 00:38:37;;;;;;;7.90;4.28;;;;;;;8.42;77.42;93692.03;4983134;28;20474;-73
2023/04/12 00:41:04;;;;;;;10.75;4.93;;;;;;;8.62;77.17;93716.53;4985623;28;20256;-72
2023/04/12 00:43:31;;;;;;;6.03;4.07;;;;;;;8.53;77.54;93717.44;4982674;28;20217;-73
2023/04/12 00:45:58;;;;;;;9.65;4.88;;;;;;;8.67;76.93;93716.31;4968411;28;20708;-72
2023/04/12 00:48:27;;;;;;;8.57;4.72;;;;;;;8.63;77.01;93707.31;4965274;28;20203;-73
2023/04/12 00:50:56;;;;;;;10.10;5.03;;;;;;;8.62;77.06;93708.44;4986625;28;20292;-73
2023/04/12 00:53:23;;;;;;;10.80;5.07;;;;;;;8.53;77.08;93709.34;4979025;28;20234;-73
2023/04/12 00:55:51;;;;;;;7.93;5.28;;;;;;;8.65;77.22;93705.06;4983341;28;20210;-73
2023/04/12 00:58:18;;;;;;;11.85;5.60;;;;;;;8.40;77.29;93680.78;4987901;28;20198;-73
2023/04/12 01:00:48;;;;;;;9.77;5.07;;;;;;;8.51;77.87;93717.00;4976118;28;20839;-74
2023/04/12 01:03:21;;;;;;;9.43;5.55;;;;;;;8.50;77.66;93699.22;4976935;28;20645;-73
2023/04/12 01:05:58;;;;;;;8.23;5.03;;;;;;;8.43;78.13;93709.81;4985880;28;20700;-73
2023/04/12 01:08:35;;;;;;;5.88;3.50;;;;;;;8.57;77.72;93703.28;4989079;28;20217;-72
2023/04/12 01:11:09;;;;;;;7.20;3.10;;;;;;;8.54;77.27;93704.75;4965853;28;20244;-72
2023/04/12 01:13:42;;;;;;;10.35;4.35;;;;;;;8.55;77.54;93704.41;4959963;28;20243;-73
2023/04/12 01:16:18;;;;;;;10.35;4.47;;;;;;;8.52;77.79;93704.28;4966847;28;20211;-77
2023/04/12 01:18:50;;;;;;;9.77;5.05;;;;;;;8.58;77.60;93699.47;4974710;28;20201;-73
2023/04/12 01:21:26;;;;;;;9.10;4.32;;;;;;;8.55;77.50;93701.72;4962842;28;20240;-73
2023/04/12 01:24:14;;;;;;;9.75;4.13;;;;;;;8.40;77.65;93677.31;4959311;28;20207;-73
2023/04/12 01:26:43;;;;;;;10.07;3.97;;;;;;;8.48;77.33;93685.28;4974775;28;20204;-73
2023/04/12 01:29:14;;;;;;;9.20;4.30;;;;;;;8.46;77.44;93684.84;4976857;28;20207;-73
2023/04/12 01:31:57;;;;;;;7.10;4.07;;;;;;;8.50;77.45;93693.03;4985583;28;20272;-73
2023/04/12 01:34:28;;;;;;;8.70;4.57;;;;;;;8.55;77.43;93693.63;4962821;28;20234;-72
2023/04/12 01:36:57;;;;;;;9.50;5.05;;;;;;;8.53;77.36;93693.16;4976620;28;20292;-73
2023/04/12 01:39:24;;;;;;;8.32;4.82;;;;;;;8.53;77.20;93687.75;4963022;28;20285;-72
2023/04/12 01:41:51;;;;;;;7.38;4.35;;;;;;;8.57;77.06;93695.19;4988329;28;20276;-73
2023/04/12 01:44:19;;;;;;;11.18;5.95;;;;;;;8.41;77.40;93679.66;4978493;28;20203;-73
2023/04/12 01:46:48;;;;;;;5.05;3.42;;;;;;;8.50;77.08;93687.66;4979956;28;20205;-73
2023/04/12 01:49:16;;;;;;;5.00;3.15;;;;;;;8.60;76.97;93691.81;4984325;28;20198;-73
2023/04/12 01:51:51;;;;;;;8.05;4.72;;;;;;;8.64;76.70;93692.69;4979773;28;20281;-72
2023/04/12 01:54:22;;;;;;;10.45;5.13;;;;;;;8.55;77.13;93695.53;4960841;28;20237;-73
2023/04/12 01:56:56;;;;;;;10.23;5.47;;;;;;;8.53;77.42;93689.69;4978185;28;20210;-73
2023/04/12 01:59:28;;;;;;;10.20;5.75;;;;;;;8.50;77.53;93691.13;4950035;28;20701;-74
2023/04/12 02:01:55;;;;;;;7.90;3.97;;;;;;;8.52;77.36;93686.19;4967372;28;20337;-74
2023/04/12 02:04:24;;;;;;;10.45;5.15;;;;;;;8.50;77.26;93693.03;4981638;28;20209;-73
2023/04/12 02:06:51;;;;;;;6.38;3.83;;;;;;;8.36;77.47;93671.78;4983438;28;20329;-73
2023/04/12 02:09:18;;;;;;;7.90;4.28;;;;;;;8.48;77.19;93687.19;4983847;28;20212;-73
2023/04/12 02:11:47;;;;;;;14.98;5.50;;;;;;;8.40;77.72;93688.88;4976428;28;20265;-73
2023/04/12 02:14:14;;;;;;;10.70;5.88;;;;;;;8.27;77.85;93679.19;4967935;28;20763;-73
2023/04/12 02:16:43;;;;;;;7.93;4.55;;;;;;;8.40;77.69;93678.09;4981124;28;20225;-73
2023/04/12 02:19:10;;;;;;;8.60;4.80;;;;;;;8.49;77.26;93673.34;4964782;28;20225;-73
2023/04/12 02:21:41;;;;;;;7.55;4.32;;;;;;;8.42;77.17;93667.75;4971553;28;20206;-73
2023/04/12 02:24:09;;;;;;;8.48;4.90;;;;;;;8.46;77.30;93678.66;4975437;28;20202;-74
2023/04/12 02:26:37;;;;;;;9.95;5.43;;;;;;;8.42;77.47;93686.63;4973812;28;20193;-73
2023/04/12 02:29:06;;;;;;;7.75;5.03;;;;;;;8.41;77.07;93658.06;4967454;28;20202;-74
2023/04/12 02:31:33;;;;;;;10.20;3.97;;;;;;;8.38;77.11;93664.16;4983849;28;20530;-73
2023/04/12 02:34:01;;;;;;;7.60;4.60;;;;;;;8.44;77.46;93684.41;4988263;28;20229;-78
2023/04/12 02:36:28;;;;;;;13.48;6.03;;;;;;;8.32;77.44;93654.72;4967838;28;20199;-74
2023/04/12 02:38:55;;;;;;;9.07;3.70;;;;;;;8.38;77.61;93674.94;4977340;28;20579;-74
2023/04/12 02:41:23;;;;;;;10.00;4.82;;;;;;;8.39;77.32;93663.03;4973738;28;20320;-73
2023/04/12 02:43:50;;;;;;;12.55;4.93;;;;;;;8.49;77.25;93670.66;4978175;28;20288;-72
2023/04/12 02:46:21;;;;;;;8.48;5.07;;;;;;;8.48;77.68;93668.28;4979448;28;20202;-72
2023/04/12 02:48:47;;;;;;;11.98;5.72;;;;;;;8.46;77.26;93665.97;4981796;28;20233;-72
2023/04/12 02:51:16;;;;;;;9.48;4.90;;;;;;;8.42;77.54;93658.88;4967076;28;20209;-73
2023/04/12 02:53:43;;;;;;;9.43;4.78;;;;;;;8.52;77.13;93674.59;4968280;28;20321;-72
2023/04/12 02:56:10;;;;;;;6.50;3.83;;;;;;;8.40;77.22;93659.19;4974620;28;20214;-74
2023/04/12 02:58:37;;;;;;;9.00;5.28;;;;;;;8.40;77.62;93667.31;4984201;28;20583;-73
2023/04/12 03:01:06;;;;;;;7.68;4.53;;;;;;;8.39;77.53;93665.72;4955427;28;20199;-72
2023/04/12 03:03:34;;;;;;;8.32;5.18;;;;;;;8.37;77.36;93657.16;4978334;28;20214;-73
2023/04/12 03:06:01;;;;;;;6.35;3.35;;;;;;;8.40;77.70;93667.31;4981410;28;20301;-72
2023/04/12 03:08:29;;;;;;;11.93;4.70;;;;;;;8.45;77.59;93669.78;4972589;28;20272;-72
2023/04/12 03:10:56;;;;;;;5.45;3.97;;;;;;;8.52;77.24;93648.41;4981644;28;20205;-72
2023/04/12 03:13:24;;;;;;;12.77;6.07;;;;;;;8.62;76.90;93662.56;4982606;28;20201;-74
2023/04/12 03:15:57;;;;;;;9.82;4.72;;;;;;;8.65;77.12;93667.28;4956949;28;20258;-72
2023/04/12 03:18:24;;;;;;;8.23;4.07;;;;;;;8.62;76.99;93651.75;4974850;28;20242;-74
2023/04/12 03:20:52;;;;;;;13.77;7.63;;;;;;;8.70;77.33;93667.06;4977133;28;20261;-72
2023/04/12 03:23:19;;;;;;;9.15;5.25;;;;;;;8.71;77.38;93676.75;4959136;28;20202;-72
2023/04/12 03:25:47;;;;;;;7.97;4.55;;;;;;;8.64;77.53;93654.91;4967924;28;20241;-75
2023/04/12 03:28:14;;;;;;;10.70;5.65;;;;;;;8.70;77.82;93672.47;4981222;28;20202;-73
2023/04/12 03:30:41;;;;;;;19.83;7.55;;;;;;;8.64;78.30;93660.31;4983343;28;20498;-74
2023/04/12 03:33:08;;;;;;;10.82;5.57;;;;;;;8.66;78.78;93664.25;4976526;28;20224;-80
2023/04/12 03:35:35;;;;;;;13.00;6.00;;;;;;;8.68;78.82;93653.13;4984601;28;20256;-75
2023/04/12 03:38:02;;;;;;;16.88;8.60;;;;;;;8.81;78.73;93665.47;4960944;28;20232;-73
2023/04/12 03:40:29;;;;;;;10.45;5.07;;;;;;;8.87;78.59;93664.13;4977282;28;20269;-71
2023/04/12 03:42:57;;;;;;;8.95;5.40;;;;;;;8.92;77.91;93655.78;4968045;28;20301;-75
2023/04/12 03:45:24;;;;;;;11.88;5.65;;;;;;;8.64;77.61;93617.13;4980626;28;20209;-74
2023/04/12 03:47:51;;;;;;;8.00;4.50;;;;;;;8.93;77.37;93668.16;4980569;28;20558;-73
2023/04/12 03:50:19;;;;;;;20.23;6.03;;;;;;;8.93;77.24;93662.75;4964211;28;20316;-77
2023/04/12 03:52:46;;;;;;;7.85;5.53;;;;;;;8.98;76.75;93686.84;4979505;28;20279;-73
2023/04/12 03:55:17;;;;;;;7.97;5.63;;;;;;;9.01;76.68;93680.75;4971124;28;20235;-73
2023/04/12 03:57:44;;;;;;;9.07;6.07;;;;;;;8.83;76.68;93647.03;4974043;28;20210;-81
2023/04/12 04:00:13;;;;;;;11.55;5.97;;;;;;;9.04;76.53;93677.34;4973245;28;20345;-73
2023/04/12 04:02:40;;;;;;;15.65;6.75;;;;;;;8.99;76.63;93684.91;4972037;28;20400;-72
2023/04/12 04:05:08;;;;;;;14.52;7.80;;;;;;;8.97;76.79;93663.66;4975785;28;20208;-72
2023/04/12 04:07:35;;;;;;;8.57;6.25;;;;;;;8.91;76.86;93671.19;4978023;28;20577;-73
2023/04/12 04:10:02;;;;;;;11.23;6.20;;;;;;;8.92;77.20;93680.09;4957942;28;20208;-72
2023/04/12 04:12:29;;;;;;;8.93;5.18;;;;;;;8.94;77.10;93685.94;4964667;28;20232;-73
2023/04/12 04:14:56;;;;;;;10.70;5.95;;;;;;;8.95;76.84;93684.81;4975253;28;20313;-74
2023/04/12 04:17:24;;;;;;;8.02;5.72;;;;;;;9.05;76.32;93692.44;4983832;28;20556;-73
2023/04/12 04:19:51;;;;;;;12.13;6.70;;;;;;;8.97;76.49;93685.25;4986594;28;20216;-73
2023/04/12 04:22:20;;;;;;;10.70;6.85;;;;;;;8.94;76.51;93702.13;4966243;28;20309;-73
2023/04/12 04:24:47;;;;;;;9.52;5.47;;;;;;;8.98;76.50;93713.84;4972411;28;20248;-73
2023/04/12 04:27:14;;;;;;;8.93;5.63;;;;;;;8.98;76.41;93713.84;4983794;28;20229;-73
2023/04/12 04:29:44;;;;;;;12.27;6.78;;;;;;;8.99;76.61;93710.03;4983030;28;20650;-76
2023/04/12 04:32:11;;;;;;;11.20;5.32;;;;;;;9.01;76.40;93726.69;4971128;28;20203;-72
2023/04/12 04:34:39;;;;;;;15.95;7.35;;;;;;;9.11;76.02;93723.50;4977820;28;20312;-76
2023/04/12 04:37:06;;;;;;;8.65;5.85;;;;;;;9.37;75.29;93733.91;4990078;28;20202;-72
2023/04/12 04:39:33;;;;;;;7.72;4.82;;;;;;;9.35;74.88;93724.56;4976651;28;20206;-72
2023/04/12 04:42:00;;;;;;;9.90;5.60;;;;;;;9.18;75.33;93726.41;4970443;28;20686;-74
2023/04/12 04:44:27;;;;;;;13.32;6.22;;;;;;;9.14;75.78;93727.44;4973129;28;20203;-72
2023/04/12 04:46:55;;;;;;;10.30;5.82;;;;;;;8.78;75.70;93698.53;4965607;28;20684;-78
2023/04/12 04:49:22;;;;;;;10.73;5.75;;;;;;;8.98;75.67;93721.16;4985437;28;20198;-75
2023/04/12 04:51:51;;;;;;;11.23;5.72;;;;;;;8.99;75.55;93736.25;4971336;28;20210;-74
2023/04/12 04:54:18;;;;;;;14.60;6.45;;;;;;;9.05;75.39;93735.66;4967288;28;20557;-73
2023/04/12 04:56:45;;;;;;;9.80;5.40;;;;;;;9.07;75.02;93743.44;4990165;28;20645;-73
2023/04/12 04:59:11;;;;;;;10.30;5.55;;;;;;;9.11;74.88;93739.72;4977074;28;20256;-74
2023/04/12 05:01:39;;;;;;;9.20;4.70;;;;;;;9.09;74.56;93739.25;4977408;28;20214;-76
2023/04/12 05:04:06;;;;;;;9.63;4.32;;;;;;;9.16;74.15;93747.56;4975348;28;20281;-75
2023/04/12 05:06:33;;;;;;;9.15;4.85;;;;;;;9.17;73.70;93749.16;4989010;28;20233;-73
2023/04/12 05:09:02;;;;;;;9.48;5.18;;;;;;;9.14;73.76;93738.25;4975115;28;20542;-73
2023/04/12 05:11:29;;;;;;;9.10;4.93;;;;;;;9.15;73.39;93759.53;4988750;28;20305;-74
2023/04/12 05:13:56;;;;;;;9.05;4.75;;;;;;;9.10;73.18;93738.13;4977319;28;20297;-74
2023/04/12 05:16:23;;;;;;;7.40;4.25;;;;;;;9.13;73.24;93756.38;4977797;28;20313;-73
2023/04/12 05:18:50;;;;;;;7.18;4.45;;;;;;;9.20;72.90;93753.88;4976238;28;20206;-83
2023/04/12 05:21:17;;;;;;;9.55;4.80;;;;;;;9.21;72.42;93770.88;4971890;28;20584;-75
2023/04/12 05:23:46;;;;;;;7.10;3.78;;;;;;;9.19;71.92;93757.69;4970268;28;20210;-76
2023/04/12 05:26:14;;;;;;;10.23;5.18;;;;;;;9.21;71.88;93760.84;4980098;28;20277;-75
2023/04/12 05:28:41;;;;;;;6.78;3.90;;;;;;;9.40;71.34;93767.59;4970992;28;20293;-73
2023/04/12 05:31:08;;;;;;;10.13;4.60;;;;;;;9.40;70.93;93765.69;4972212;28;20309;-74
2023/04/12 05:33:36;;;;;;;4.50;2.60;;;;;;;9.09;69.85;93725.75;4956041;28;20697;-75
2023/04/12 05:36:03;;;;;;;6.13;3.15;;;;;;;9.23;69.74;93764.00;4981168;28;20265;-75
2023/04/12 05:38:30;;;;;;;5.30;2.97;;;;;;;9.21;70.04;93771.66;4972599;28;20269;-73
2023/04/12 05:40:57;;;;;;;8.00;4.57;;;;;;;9.26;70.28;93774.16;4975794;28;20214;-73
2023/04/12 05:43:25;;;;;;;7.00;3.42;;;;;;;9.30;70.06;93768.03;4976381;28;20704;-74
2023/04/12 05:45:53;;;;;;;6.45;2.85;;;;;;;9.18;69.13;93771.53;4976768;28;21177;-78
2023/04/12 05:48:20;;;;;;;3.70;2.30;;;;;;;9.20;69.10;93767.38;4971469;28;20257;-75
2023/04/12 05:50:51;;;;;;;6.20;3.03;;;;;;;9.17;68.63;93762.66;4978181;28;20193;-73
2023/04/12 05:53:18;;;;;;;3.45;2.25;;;;;;;9.18;68.03;93766.94;4967707;28;20205;-76
2023/04/12 05:55:45;;;;;;;4.35;2.58;;;;;;;9.15;67.73;93770.34;4972033;28;20244;-76
2023/04/12 05:58:13;;;;;;;4.03;3.00;;;;;;;9.20;67.78;93775.50;4968969;28;20203;-74
2023/04/12 06:00:41;;;;;;;5.40;2.58;;;;;;;9.18;67.50;93772.34;4966674;28;20206;-76
2023/04/12 06:03:09;;;;;;;4.60;2.42;;;;;;;9.17;67.77;93781.56;4968238;28;20746;-72
2023/04/12 06:05:36;;;;;;;5.57;3.15;;;;;;;9.29;67.21;93788.91;4973169;28;20795;-74
2023/04/12 06:08:05;;;;;;;2.85;2.00;;;;;;;9.11;67.06;93791.03;4975567;28;20689;-74
2023/04/12 06:10:32;;;;;;;4.47;2.15;;;;;;;9.04;67.28;93790.00;4967614;28;20199;-74
2023/04/12 06:12:59;;;;;;;4.63;2.70;;;;;;;8.97;67.46;93793.28;4969276;28;20228;-74
2023/04/12 06:15:25;;;;;;;6.85;2.78;;;;;;;8.98;67.70;93805.69;4964458;28;20230;-73
2023/04/12 06:17:54;;;;;;;6.53;2.15;;;;;;;8.87;67.85;93796.44;4967368;28;20206;-73
2023/04/12 06:20:20;;;;;;;2.88;1.77;;;;;;;8.90;68.21;93811.97;4966246;28;20206;-76
2023/04/12 06:22:47;;;;;;;4.93;2.15;;;;;;;8.89;68.37;93813.09;4967430;28;20202;-74
2023/04/12 06:25:16;;;;;;;3.30;2.15;;;;;;;8.84;68.62;93802.53;4966045;28;20205;-73
2023/04/12 06:27:43;;;;;;;3.80;2.03;;;;;;;8.74;69.25;93813.75;4966122;28;20709;-73
2023/04/12 06:30:10;;;;;;;6.15;2.72;;;;;;;8.57;71.58;93812.03;4966155;28;20211;-74
2023/04/12 06:32:37;;;;;;;5.57;2.50;;;;;;;8.58;72.06;93804.72;4963571;28;20218;-76
2023/04/12 06:35:08;;;;;;;3.90;2.35;;;;;;;8.53;71.64;93813.81;4962463;28;20301;-74
2023/04/12 06:37:35;;;;;;;2.85;1.98;;;;;;;8.61;71.50;93809.47;4965911;28;20207;-75
2023/04/12 06:40:02;;;;;;;2.63;1.83;;;;;;;8.76;70.04;93809.59;4967347;28;20218;-74
2023/04/12 06:42:29;;;;;;;4.05;2.45;;;;;;;8.53;69.69;93757.94;4964296;28;20194;-73
2023/04/12 06:44:56;;;;;;;5.15;2.20;;;;;;;8.88;69.31;93773.72;4963917;28;20198;-73
2023/04/12 06:47:25;;;;;;;4.10;2.03;;;;;;;9.13;68.11;93788.78;4965611;28;20198;-74
2023/04/12 06:49:54;;;;;;;5.90;2.38;;;;;;;9.26;67.75;93806.56;4964644;28;20198;-74
2023/04/12 06:52:24;;;;;;;2.42;1.75;;;;;;;9.30;67.69;93795.06;4964463;28;20206;-74
2023/04/12 06:54:54;;;;;;;4.03;2.03;;;;;;;9.32;67.61;93787.41;4967573;28;20681;-74
2023/04/12 06:57:21;;;;;;;2.08;1.48;;;;;;;9.21;67.68;93793.28;4966934;28;20198;-78
2023/04/12 06:59:48;;;;;;;1.85;1.55;;;;;;;9.22;67.83;93794.84;4964017;28;20652;-74
2023/04/12 07:02:15;;;;;;;1.55;1.15;;;;;;;9.34;66.87;93790.56;4965971;28;20194;-80
2023/04/12 07:04:42;;;;;;;3.45;1.83;;;;;;;9.54;67.03;93778.81;4966424;28;20841;-73
2023/04/12 07:07:10;;;;;;;4.03;2.33;;;;;;;9.86;65.61;93767.00;4966452;28;20253;-74
2023/04/12 07:09:40;;;;;;;2.60;1.88;;;;;;;10.29;64.73;93770.91;4965219;28;20212;-76
2023/04/12 07:12:09;;;;;;;2.30;1.70;;;;;;;10.96;62.10;93771.81;4963243;28;20229;-75
2023/04/12 07:14:36;;;;;;;2.13;1.52;;;;;;;11.44;60.75;93770.63;4967911;28;20206;-87
2023/04/12 07:17:03;;;;;;;2.90;2.05;;;;;;;12.21;58.88;93769.91;4966382;28;20225;-78
2023/04/12 07:19:30;;;;;;;3.88;2.33;;;;;;;11.93;58.75;93781.00;4962059;28;20250;-81
2023/04/12 07:21:57;;;;;;;2.13;1.58;;;;;;;11.62;60.17;93769.06;4966506;28;20669;-74
2023/04/12 07:24:24;;;;;;;1.90;1.70;;;;;;;11.97;59.99;93784.56;4965339;28;20199;-74
2023/04/12 07:26:54;;;;;;;5.82;2.58;;;;;;;11.77;59.72;93778.34;4969944;28;20209;-74
2023/04/12 07:29:21;;;;;;;2.60;2.30;;;;;;;11.28;60.37;93767.16;4965782;28;20198;-77
2023/04/12 07:31:48;;;;;;;3.97;2.63;;;;;;;11.11;61.90;93784.56;4967390;28;20207;-74
2023/04/12 07:34:15;;;;;;;4.18;3.40;;;;;;;10.71;62.71;93775.84;4970616;28;20207;-73
2023/04/12 07:36:43;;;;;;;4.32;2.10;;;;;;;10.76;62.41;93767.47;4962482;28;20245;-74
2023/04/12 07:39:10;;;;;;;3.80;3.08;;;;;;;10.44;62.77;93772.84;4966510;28;20206;-73
2023/04/12 07:41:37;;;;;;;3.75;2.95;;;;;;;10.69;62.52;93768.84;4966248;28;20260;-73
2023/04/12 07:44:06;;;;;;;2.67;2.00;;;;;;;10.59;62.58;93774.00;4969509;28;20218;-74
2023/04/12 07:46:33;;;;;;;8.48;1.88;;;;;;;10.17;63.22;93769.00;4967693;28;20206;-79
2023/04/12 07:49:00;;;;;;;5.75;3.75;;;;;;;10.59;63.03;93765.88;4968752;28;20646;-74
2023/04/12 07:51:27;;;;;;;2.28;2.03;;;;;;;10.68;62.36;93761.84;4973460;28;21119;-74
2023/04/12 07:53:53;;;;;;;2.83;1.65;;;;;;;11.55;60.05;93749.16;4975489;28;20198;-74
2023/04/12 07:56:20;;;;;;;4.13;3.15;;;;;;;12.35;58.54;93751.97;4967770;28;20249;-75
2023/04/12 07:58:47;;;;;;;3.78;1.98;;;;;;;12.47;54.69;93726.56;4968726;28;20199;-81
2023/04/12 08:01:16;;;;;;;2.80;1.52;;;;;;;12.14;55.61;93742.66;4975407;28;20296;-74
2023/04/12 08:03:43;;;;;;;3.53;2.10;;;;;;;11.56;55.26;93745.31;4969950;28;20662;-75
2023/04/12 08:06:10;;;;;;;6.93;2.00;;;;;;;11.80;53.86;93739.63;4929807;28;1171977;-74
2023/04/12 08:08:37;;;;;;;4.20;1.75;;;;;;;11.27;55.61;93733.84;4980786;28;20478;-79
2023/04/12 08:11:05;;;;;;;0.88;0.75;;;;;;;11.01;56.44;93730.91;4979666;28;20554;-74
2023/04/12 08:13:35;;;;;;;1.90;1.27;;;;;;;11.00;57.10;93742.91;4974369;28;20208;-82
2023/04/12 08:16:01;;;;;;;2.03;1.10;;;;;;;10.77;57.18;93718.38;4976798;28;20237;-73
2023/04/12 08:18:30;;;;;;;3.28;1.55;;;;;;;10.92;56.91;93743.88;4973951;28;20201;-75
2023/04/12 08:20:57;;;;;;;2.00;1.45;;;;;;;10.93;56.07;93734.59;4989487;28;20205;-74
2023/04/12 08:23:25;;;;;;;4.68;1.30;;;;;;;10.53;54.58;93746.38;4978895;28;20273;-75
2023/04/12 08:25:58;;;;;;;1.45;1.33;;;;;;;10.37;54.08;93742.91;4967855;28;20213;-74
2023/04/12 08:28:27;;;;;;;2.92;2.10;;;;;;;10.98;54.13;93754.06;4970246;28;20216;-73
2023/04/12 08:30:54;;;;;;;4.82;1.70;;;;;;;11.21;51.70;93737.94;4970399;28;20206;-73
2023/04/12 08:33:21;;;;;;;2.42;1.58;;;;;;;11.37;51.48;93733.28;4962935;28;20206;-74
2023/04/12 08:35:49;;;;;;;1.27;1.10;;;;;;;11.43;51.18;93724.88;4961626;28;20227;-74
2023/04/12 08:38:16;;;;;;;1.00;0.88;;;;;;;11.88;50.54;93725.09;4962107;28;20202;-75
2023/04/12 08:40:45;;;;;;;1.67;1.58;;;;;;;12.36;49.64;93709.31;4967043;28;20261;-73
2023/04/12 08:43:12;;;;;;;3.08;1.90;;;;;;;12.79;49.19;93718.97;4965443;28;20201;-73
2023/04/12 08:45:40;;;;;;;1.73;1.42;;;;;;;12.82;47.43;93729.91;4970374;28;20201;-74
2023/04/12 08:48:07;;;;;;;3.25;1.80;;;;;;;12.73;47.15;93713.03;4970890;28;20205;-73
2023/04/12 08:50:36;;;;;;;1.42;1.33;;;;;;;13.01;46.83;93730.97;4970212;28;20225;-75
2023/04/12 08:53:04;;;;;;;2.53;0.82;;;;;;;11.90;47.65;93711.94;4963297;28;20195;-76
2023/04/12 08:55:31;;;;;;;3.15;1.25;;;;;;;11.98;49.39;93726.44;4970542;28;20199;-74
2023/04/12 08:57:58;;;;;;;3.97;1.70;;;;;;;12.11;49.43;93727.84;4970220;28;20211;-76
2023/04/12 09:00:26;;;;;;;1.17;1.08;;;;;;;11.76;50.42;93727.91;4967272;28;20206;-75
2023/04/12 09:02:53;;;;;;;1.70;1.30;;;;;;;11.57;51.03;93742.25;4971782;28;20213;-74
2023/04/12 09:05:21;;;;;;;1.67;1.40;;;;;;;11.23;51.72;93730.25;4963151;28;20670;-75
2023/04/12 09:07:48;;;;;;;2.42;1.73;;;;;;;11.33;52.12;93735.16;4964474;28;20241;-74
2023/04/12 09:10:31;;;;;;;1.27;0.95;;;;;;;11.25;50.37;93709.00;4969574;28;20245;-83
2023/04/12 09:12:59;;;;;;;1.35;1.13;;;;;;;11.83;50.16;93721.88;4974603;28;20217;-74
2023/04/12 09:15:25;;;;;;;4.95;1.25;;;;;;;12.32;48.66;93728.25;4988365;28;20209;-75
2023/04/12 09:18:04;;;;;;;3.35;1.70;;;;;;;12.24;47.39;93715.69;4989833;28;20237;-75
2023/04/12 09:20:31;;;;;;;3.40;1.48;;;;;;;11.79;48.41;93713.66;4964821;28;20232;-83
2023/04/12 09:22:59;;;;;;;4.07;2.85;;;;;;;12.01;49.32;93718.38;4989871;28;20815;-76
2023/04/12 09:25:39;;;;;;;1.20;1.02;;;;;;;11.77;48.48;93713.22;4978798;28;20256;-86
2023/04/12 09:28:22;;;;;;;2.25;1.15;;;;;;;11.93;47.50;93708.50;4986981;28;20222;-75
2023/04/12 09:30:51;;;;;;;1.52;1.20;;;;;;;11.74;46.69;93703.84;4981520;28;20198;-77
2023/04/12 09:33:22;;;;;;;2.58;1.40;;;;;;;11.88;47.34;93708.81;4976114;28;20214;-75
2023/04/12 09:35:50;;;;;;;2.00;1.27;;;;;;;11.90;45.48;93703.78;4988843;28;20700;-78
2023/04/12 09:38:17;;;;;;;1.02;0.90;;;;;;;12.09;44.35;93703.78;4989245;28;20237;-73
2023/04/12 09:40:45;;;;;;;1.55;1.25;;;;;;;12.12;44.36;93652.63;4989370;28;20233;-74
2023/04/12 09:43:12;;;;;;;2.13;1.20;;;;;;;12.58;44.91;93681.34;4989266;28;20241;-73
2023/04/12 09:45:38;;;;;;;1.23;0.68;;;;;;;12.39;45.08;93690.34;4988738;28;20209;-75
2023/04/12 09:48:07;;;;;;;1.55;1.15;;;;;;;12.47;44.70;93677.66;4976111;28;20713;-75
2023/04/12 09:50:34;;;;;;;1.45;1.02;;;;;;;11.93;45.04;93681.38;4988894;28;20744;-74
2023/04/12 09:53:05;;;;;;;1.92;0.90;;;;;;;12.08;44.71;93677.78;4988850;28;20304;-74
2023/04/12 09:55:32;;;;;;;4.07;1.10;;;;;;;12.64;44.47;93652.75;4988505;28;20264;-74
2023/04/12 09:58:04;;;;;;;0.70;0.70;;;;;;;12.86;44.98;93663.94;4988915;28;20230;-75
2023/04/12 10:00:33;;;;;;;1.60;1.10;;;;;;;12.80;44.72;93656.09;4988115;28;20208;-74
2023/04/12 10:03:00;;;;;;;2.25;1.23;;;;;;;13.12;44.62;93642.19;4978731;28;20217;-74
2023/04/12 10:05:27;;;;;;;1.95;1.02;;;;;;;12.51;45.88;93654.09;4984617;28;20260;-75
2023/04/12 10:07:55;;;;;;;2.20;1.08;;;;;;;12.63;43.60;93640.31;4988462;28;20260;-75
2023/04/12 10:10:23;;;;;;;2.22;0.90;;;;;;;13.00;40.60;93629.59;4985687;28;20293;-75
2023/04/12 10:12:50;;;;;;;1.60;0.77;;;;;;;13.37;39.20;93624.31;4978440;28;20233;-74
2023/04/12 10:15:20;;;;;;;1.65;0.88;;;;;;;13.38;38.20;93652.28;4988186;28;20197;-76
2023/04/12 10:17:48;;;;;;;1.30;0.80;;;;;;;12.82;36.36;93621.19;4988272;28;20312;-78
2023/04/12 10:20:17;;;;;;;3.25;0.73;;;;;;;13.23;35.99;93635.00;4983687;28;20705;-78
2023/04/12 10:22:47;;;;;;;4.15;0.98;;;;;;;13.12;35.61;93637.53;4964782;28;20214;-77
2023/04/12 10:25:16;;;;;;;2.22;1.23;;;;;;;13.27;36.75;93624.94;4972594;28;20205;-74
2023/04/12 10:27:44;;;;;;;1.00;0.80;;;;;;;13.26;36.99;93628.81;4974340;28;20202;-74
2023/04/12 10:30:27;;;;;;;3.05;0.95;;;;;;;13.27;37.60;93613.28;4984975;28;20201;-79
2023/04/12 10:33:15;;;;;;;6.72;1.27;;;;;;;13.77;38.18;93604.56;4983541;28;20203;-75
2023/04/12 10:36:02;;;;;;;1.10;0.80;;;;;;;13.88;38.15;93604.66;4988090;28;20288;-74
2023/04/12 10:38:36;;;;;;;1.77;1.10;;;;;;;13.36;37.81;93600.19;4965988;28;20205;-76
2023/04/12 10:41:12;;;;;;;3.63;0.93;;;;;;;13.37;38.33;93607.19;4988744;28;20567;-81
2023/04/12 10:43:40;;;;;;;2.15;0.95;;;;;;;13.44;38.67;93612.72;4975447;28;20499;-74
2023/04/12 10:46:08;;;;;;;2.05;0.80;;;;;;;13.64;37.77;93610.63;4985095;28;20681;-73
2023/04/12 10:48:36;;;;;;;3.10;0.93;;;;;;;13.56;34.96;93600.81;4977066;28;20256;-75
2023/04/12 10:51:21;;;;;;;1.73;0.88;;;;;;;13.69;36.40;93610.28;4960840;28;20220;-77
2023/04/12 10:53:49;;;;;;;4.97;1.10;;;;;;;13.44;35.56;93605.34;4973791;28;20199;-80
2023/04/12 10:56:36;;;;;;;1.35;0.85;;;;;;;13.65;35.27;93601.31;4975975;28;20288;-77
2023/04/12 10:59:04;;;;;;;1.42;0.80;;;;;;;13.36;33.90;93600.97;4987748;28;20539;-75
2023/04/12 11:01:35;;;;;;;1.67;1.00;;;;;;;12.94;34.74;93605.81;4988375;28;20205;-75
2023/04/12 11:04:12;;;;;;;1.20;0.90;;;;;;;13.11;36.85;93606.06;4976654;28;20198;-76
2023/04/12 11:07:03;;;;;;;1.17;1.02;;;;;;;13.40;35.61;93585.47;4987672;28;20233;-76
2023/04/12 11:09:39;;;;;;;2.03;0.82;;;;;;;13.41;33.49;93603.34;4967451;28;20205;-75
2023/04/12 11:12:13;;;;;;;4.53;1.52;;;;;;;13.45;33.31;93604.19;4974943;28;20233;-82
2023/04/12 11:14:45;;;;;;;2.40;1.10;;;;;;;13.92;32.49;93591.88;4979741;28;21069;-76
2023/04/12 11:17:26;;;;;;;2.92;1.13;;;;;;;14.07;33.08;93590.88;4981064;28;20787;-74
2023/04/12 11:19:59;;;;;;;3.95;0.95;;;;;;;14.16;32.25;93585.88;4956726;28;20674;-74
2023/04/12 11:22:28;;;;;;;1.58;0.90;;;;;;;14.40;32.87;93591.94;4978382;28;20237;-82
2023/04/12 11:24:56;;;;;;;1.98;1.00;;;;;;;14.40;32.69;93586.50;4974748;28;20202;-75
2023/04/12 11:27:25;;;;;;;4.70;1.40;;;;;;;13.53;33.56;93584.06;4991033;28;20216;-76
2023/04/12 11:29:54;;;;;;;1.85;0.98;;;;;;;13.36;34.23;93595.53;4987607;28;20209;-74
2023/04/12 11:32:22;;;;;;;3.30;1.20;;;;;;;13.31;33.15;93576.81;4988673;28;20205;-74
2023/04/12 11:34:51;;;;;;;3.35;0.90;;;;;;;13.72;33.77;93585.06;4976129;28;20287;-79
2023/04/12 11:37:20;;;;;;;0.75;0.57;;;;;;;12.98;34.38;93585.69;4991409;28;20234;-75
2023/04/12 11:39:49;;;;;;;1.98;0.90;;;;;;;13.45;33.93;93598.75;4991027;28;20252;-74
2023/04/12 11:42:18;;;;;;;1.45;1.13;;;;;;;13.74;33.63;93593.63;4989926;28;20209;-75
2023/04/12 11:44:46;;;;;;;2.58;0.95;;;;;;;13.68;33.21;93590.44;4978064;28;20668;-74